createdAt,value
2018-07-12T00:01:41.228Z,28.33
2018-07-12T00:04:08.359Z,24.23
2018-07-12T00:06:35.442Z,26.00
2018-07-12T00:09:02.566Z,24.23
2018-07-12T00:11:29.680Z,27.90
2018-07-12T00:13:56.820Z,26.73
2018-07-12T00:16:23.985Z,25.53
2018-07-12T00:18:51.191Z,26.40
2018-07-12T00:21:18.377Z,26.70
2018-07-12T00:23:45.487Z,27.00
2018-07-12T00:26:12.567Z,26.70
2018-07-12T00:28:39.679Z,24.27
2018-07-12T00:31:06.806Z,26.33
2018-07-12T00:33:33.918Z,24.60
2018-07-12T00:36:01.032Z,23.97
2018-07-12T00:38:28.222Z,24.87
2018-07-12T00:40:55.365Z,23.47
2018-07-12T00:43:22.531Z,25.63
2018-07-12T00:45:49.826Z,25.67
2018-07-12T00:48:17.038Z,27.07
2018-07-12T00:50:44.118Z,25.53
2018-07-12T00:53:11.222Z,25.83
2018-07-12T00:55:38.303Z,27.60
2018-07-12T00:58:05.401Z,29.50
2018-07-12T01:00:32.815Z,31.97
2018-07-12T01:02:59.895Z,27.97
2018-07-12T01:05:27.019Z,27.30
2018-07-12T01:07:54.143Z,26.97
2018-07-12T01:10:21.253Z,30.70
2018-07-12T01:12:48.337Z,28.80
2018-07-12T01:15:15.515Z,27.77
2018-07-12T01:17:42.556Z,28.93
2018-07-12T01:20:09.664Z,28.70
2018-07-12T01:22:36.784Z,31.17
2018-07-12T01:25:03.863Z,30.43
2018-07-12T01:27:31.006Z,34.70
2018-07-12T01:29:58.077Z,29.93
2018-07-12T01:32:25.223Z,30.57
2018-07-12T01:34:52.308Z,31.40
2018-07-12T01:37:19.429Z,30.73
2018-07-12T01:39:46.506Z,33.90
2018-07-12T01:42:13.578Z,32.10
2018-07-12T01:44:40.675Z,33.90
2018-07-12T01:47:07.787Z,31.13
2018-07-12T01:49:34.871Z,32.13
2018-07-12T01:52:01.980Z,29.03
2018-07-12T01:54:29.059Z,29.67
2018-07-12T01:56:56.140Z,32.77
2018-07-12T01:59:23.220Z,30.33
2018-07-12T02:01:50.314Z,31.63
2018-07-12T02:04:17.417Z,31.53
2018-07-12T02:06:44.499Z,29.00
2018-07-12T02:09:11.591Z,27.40
2018-07-12T02:11:38.976Z,31.53
2018-07-12T02:14:06.108Z,31.20
2018-07-12T02:16:33.191Z,32.13
2018-07-12T02:19:00.321Z,38.27
2018-07-12T02:21:27.395Z,36.37
2018-07-12T02:23:56.170Z,35.63
2018-07-12T02:26:23.262Z,35.27
2018-07-12T02:28:50.332Z,34.77
2018-07-12T02:31:17.429Z,35.20
2018-07-12T02:33:44.526Z,36.63
2018-07-12T02:36:11.710Z,40.10
2018-07-12T02:38:38.788Z,39.23
2018-07-12T02:41:05.910Z,40.40
2018-07-12T02:43:33.061Z,37.33
2018-07-12T02:46:00.148Z,37.53
2018-07-12T02:48:27.268Z,36.50
2018-07-12T02:50:54.307Z,40.10
2018-07-12T02:53:21.380Z,41.97
2018-07-12T02:55:48.768Z,42.20
2018-07-12T02:58:15.848Z,41.77
2018-07-12T03:00:43.028Z,44.77
2018-07-12T03:03:10.404Z,41.07
2018-07-12T03:05:37.641Z,39.30
2018-07-12T03:08:04.725Z,46.87
2018-07-12T03:10:32.059Z,45.07
2018-07-12T03:12:59.160Z,45.27
2018-07-12T03:15:26.243Z,46.33
2018-07-12T03:17:53.341Z,44.67
2018-07-12T03:20:20.448Z,45.77
2018-07-12T03:22:47.567Z,48.47
2018-07-12T03:25:15.099Z,44.33
2018-07-12T03:27:42.204Z,49.63
2018-07-12T03:30:09.312Z,49.27
2018-07-12T03:32:36.407Z,52.00
2018-07-12T03:35:03.505Z,47.40
2018-07-12T03:37:30.599Z,37.00
2018-07-12T03:39:57.711Z,61.87
2018-07-12T03:42:24.830Z,51.47
2018-07-12T03:44:51.941Z,49.70
2018-07-12T03:47:19.211Z,45.13
2018-07-12T03:49:46.307Z,45.17
2018-07-12T03:52:13.407Z,49.50
2018-07-12T03:54:40.502Z,51.30
2018-07-12T03:57:07.579Z,49.03
2018-07-12T03:59:34.792Z,58.27
2018-07-12T04:02:01.868Z,57.17
2018-07-12T04:04:28.962Z,47.37
2018-07-12T04:06:56.064Z,66.67
2018-07-12T04:09:23.155Z,51.50
2018-07-12T04:11:50.281Z,52.80
2018-07-12T04:14:17.628Z,49.13
2018-07-12T04:16:44.752Z,48.07
2018-07-12T04:19:11.836Z,43.07
2018-07-12T04:21:39.111Z,64.90
2018-07-12T04:24:06.202Z,66.17
2018-07-12T04:26:33.288Z,43.53
2018-07-12T04:29:00.498Z,44.43
2018-07-12T04:31:27.707Z,41.60
2018-07-12T04:33:54.864Z,41.43
2018-07-12T04:36:22.071Z,49.37
2018-07-12T04:38:49.341Z,41.40
2018-07-12T04:41:16.440Z,48.07
2018-07-12T04:43:43.604Z,44.73
2018-07-12T04:46:10.703Z,55.90
2018-07-12T04:48:37.828Z,45.50
2018-07-12T04:51:04.933Z,45.13
2018-07-12T04:53:32.000Z,46.43
2018-07-12T04:55:59.146Z,47.37
2018-07-12T04:58:26.302Z,45.53
2018-07-12T05:00:53.391Z,46.73
2018-07-12T05:03:20.519Z,46.67
2018-07-12T05:05:47.653Z,42.23
2018-07-12T05:08:14.801Z,45.13
2018-07-12T05:10:41.839Z,42.87
2018-07-12T05:13:08.952Z,43.07
2018-07-12T05:15:36.045Z,42.33
2018-07-12T05:18:03.152Z,43.40
2018-07-12T05:20:30.258Z,41.63
2018-07-12T05:22:57.344Z,38.00
2018-07-12T05:25:24.565Z,37.20
2018-07-12T05:27:51.819Z,37.13
2018-07-12T05:30:18.992Z,37.50
2018-07-12T05:32:46.119Z,33.60
2018-07-12T05:35:13.217Z,34.90
2018-07-12T05:37:41.260Z,32.10
2018-07-12T05:40:09.658Z,33.80
2018-07-12T05:42:37.723Z,35.23
2018-07-12T05:45:05.868Z,32.63
2018-07-12T05:47:33.956Z,34.73
2018-07-12T05:50:02.033Z,37.83
2018-07-12T05:52:31.015Z,37.23
2018-07-12T05:54:59.172Z,36.40
2018-07-12T05:57:27.283Z,42.70
2018-07-12T05:59:55.316Z,35.40
2018-07-12T06:02:24.559Z,38.03
2018-07-12T06:04:52.611Z,37.63
2018-07-12T06:07:25.970Z,38.43
2018-07-12T06:09:54.117Z,38.70
2018-07-12T06:12:22.179Z,37.40
2018-07-12T06:14:50.737Z,40.20
2018-07-12T06:17:18.866Z,37.43
2018-07-12T06:19:47.208Z,35.03
2018-07-12T06:22:15.480Z,35.63
2018-07-12T06:24:43.567Z,36.57
2018-07-12T06:27:13.528Z,35.00
2018-07-12T06:29:41.565Z,36.07
2018-07-12T06:32:09.645Z,36.05
2018-07-12T06:34:37.706Z,36.13
2018-07-12T06:37:05.826Z,36.50
2018-07-12T06:39:33.860Z,35.30
2018-07-12T06:42:01.964Z,34.40
2018-07-12T06:44:30.248Z,34.83
2018-07-12T06:46:58.298Z,35.88
2018-07-12T06:49:26.371Z,34.70
2018-07-12T06:51:54.441Z,34.73
2018-07-12T06:54:22.502Z,33.30
2018-07-12T06:56:50.595Z,32.78
2018-07-12T06:59:18.644Z,32.93
2018-07-12T07:01:46.744Z,33.75
2018-07-12T07:04:14.797Z,32.03
2018-07-12T07:06:42.864Z,31.73
2018-07-12T07:09:11.615Z,33.08
2018-07-12T07:11:39.924Z,31.35
2018-07-12T07:14:08.223Z,29.02
2018-07-12T07:16:36.703Z,28.73
2018-07-12T07:19:04.752Z,30.62
2018-07-12T07:21:33.678Z,25.23
2018-07-12T07:24:01.692Z,25.40
2018-07-12T07:26:29.753Z,25.17
2018-07-12T07:28:57.800Z,23.73
2018-07-12T07:31:25.856Z,24.43
2018-07-12T07:33:53.936Z,25.43
2018-07-12T07:36:22.016Z,22.77
2018-07-12T07:38:50.107Z,23.70
2018-07-12T07:41:18.179Z,22.17
2018-07-12T07:43:46.246Z,22.05
2018-07-12T07:46:14.346Z,23.22
2018-07-12T07:48:42.395Z,19.02
2018-07-12T07:51:10.459Z,18.98
2018-07-12T07:53:38.611Z,18.10
2018-07-12T07:56:06.736Z,16.90
2018-07-12T07:58:34.869Z,18.60
2018-07-12T08:01:02.971Z,12.93
2018-07-12T08:03:31.025Z,13.50
2018-07-12T08:05:59.088Z,12.40
2018-07-12T08:08:27.224Z,11.90
2018-07-12T08:10:55.517Z,14.23
2018-07-12T08:13:23.692Z,15.80
2018-07-12T08:15:51.844Z,15.53
2018-07-12T08:18:19.917Z,15.72
2018-07-12T08:20:48.001Z,15.95
2018-07-12T08:23:16.045Z,17.12
2018-07-12T08:25:44.239Z,17.25
2018-07-12T08:28:21.743Z,19.65
2018-07-12T08:30:49.987Z,19.25
2018-07-12T08:33:18.070Z,20.80
2018-07-12T08:35:46.129Z,23.92
2018-07-12T08:38:14.567Z,23.77
2018-07-12T08:40:43.443Z,22.00
2018-07-12T08:43:11.848Z,22.90
2018-07-12T08:45:39.916Z,21.65
2018-07-12T08:48:08.574Z,21.97
2018-07-12T08:50:36.619Z,22.52
2018-07-12T08:53:04.714Z,20.62
2018-07-12T08:55:32.852Z,21.97
2018-07-12T08:58:00.936Z,14.78
2018-07-12T09:00:29.070Z,12.88
2018-07-12T09:02:57.245Z,13.60
2018-07-12T09:05:25.289Z,12.93
2018-07-12T09:07:55.364Z,17.42
2018-07-12T09:10:23.468Z,23.60
2018-07-12T09:12:51.829Z,17.80
2018-07-12T09:15:19.885Z,17.92
2018-07-12T09:17:49.636Z,18.70
2018-07-12T09:20:17.708Z,18.82
2018-07-12T09:22:47.533Z,17.70
2018-07-12T09:25:17.252Z,16.12
2018-07-12T09:27:45.939Z,16.40
2018-07-12T09:30:14.122Z,13.98
2018-07-12T09:32:42.189Z,13.00
2018-07-12T09:35:10.260Z,12.80
2018-07-12T09:37:38.620Z,11.70
2018-07-12T09:40:06.686Z,12.53
2018-07-12T09:42:35.353Z,9.60
2018-07-12T09:45:03.629Z,6.58
2018-07-12T09:47:31.698Z,6.65
2018-07-12T09:49:59.861Z,5.90
2018-07-12T09:52:32.443Z,6.33
2018-07-12T09:55:01.432Z,5.22
2018-07-12T09:57:41.199Z,4.90
2018-07-12T10:00:09.251Z,5.40
2018-07-12T10:02:42.995Z,5.10
2018-07-12T10:06:14.675Z,5.72
2018-07-12T10:08:48.044Z,5.80
2018-07-12T10:11:21.843Z,6.00
2018-07-12T10:13:55.151Z,5.47
2018-07-12T10:16:28.499Z,4.72
2018-07-12T10:18:56.527Z,5.72
2018-07-12T10:21:24.605Z,5.12
2018-07-12T10:23:53.244Z,5.75
2018-07-12T10:26:21.296Z,4.90
2018-07-12T10:28:49.383Z,5.10
2018-07-12T10:31:17.447Z,5.80
2018-07-12T10:33:45.516Z,5.22
2018-07-12T10:36:13.625Z,4.87
2018-07-12T10:38:41.698Z,5.22
2018-07-12T10:41:09.745Z,4.60
2018-07-12T10:43:37.838Z,4.95
2018-07-12T10:46:05.988Z,4.97
2018-07-12T10:48:34.088Z,5.35
2018-07-12T10:51:02.180Z,4.87
2018-07-12T10:53:30.403Z,4.85
2018-07-12T10:55:58.536Z,5.33
2018-07-12T10:58:27.292Z,4.62
2018-07-12T11:00:55.480Z,4.45
2018-07-12T11:03:23.696Z,4.70
2018-07-12T11:05:52.017Z,4.60
2018-07-12T11:08:20.210Z,4.20
2018-07-12T11:10:48.873Z,4.15
2018-07-12T11:13:19.525Z,4.28
2018-07-12T11:15:48.396Z,4.22
2018-07-12T11:18:16.664Z,4.60
2018-07-12T11:20:45.386Z,5.35
2018-07-12T11:23:13.472Z,4.40
2018-07-12T11:25:41.544Z,4.08
2018-07-12T11:28:09.640Z,4.00
2018-07-12T11:30:37.680Z,4.03
2018-07-12T11:33:45.278Z,4.40
2018-07-12T11:36:14.579Z,4.33
2018-07-12T11:38:43.963Z,5.22
2018-07-12T11:41:12.254Z,4.58
2018-07-12T11:43:40.371Z,4.75
2018-07-12T11:46:09.660Z,4.00
2018-07-12T11:48:39.855Z,4.85
2018-07-12T11:51:07.900Z,4.00
2018-07-12T11:53:35.960Z,4.35
2018-07-12T11:56:04.044Z,4.03
2018-07-12T11:58:32.122Z,4.83
2018-07-12T12:01:01.077Z,4.33
2018-07-12T12:03:29.672Z,3.95
2018-07-12T12:05:57.909Z,4.92
2018-07-12T12:08:26.566Z,4.50
2018-07-12T12:10:54.979Z,4.47
2018-07-12T12:13:23.461Z,4.78
2018-07-12T12:15:51.819Z,4.97
2018-07-12T12:18:20.164Z,4.92
2018-07-12T12:20:48.568Z,5.25
2018-07-12T12:23:16.784Z,5.25
2018-07-12T12:25:44.981Z,5.70
2018-07-12T12:28:13.075Z,5.83
2018-07-12T12:30:41.949Z,5.28
2018-07-12T12:33:09.995Z,5.25
2018-07-12T12:35:38.119Z,5.67
2018-07-12T12:38:06.175Z,5.67
2018-07-12T12:40:34.392Z,5.85
2018-07-12T12:43:02.666Z,5.15
2018-07-12T12:45:30.928Z,5.37
2018-07-12T12:48:05.774Z,5.70
2018-07-12T12:50:33.851Z,6.20
2018-07-12T12:53:02.397Z,4.85
2018-07-12T12:55:30.590Z,5.62
2018-07-12T12:57:58.867Z,7.03
2018-07-12T13:00:27.105Z,6.50
2018-07-12T13:02:55.723Z,6.35
2018-07-12T13:05:24.129Z,6.50
2018-07-12T13:07:52.603Z,6.33
2018-07-12T13:10:21.242Z,6.58
2018-07-12T13:12:49.670Z,6.22
2018-07-12T13:15:17.944Z,6.22
2018-07-12T13:17:46.054Z,5.90
2018-07-12T13:20:14.157Z,5.70
2018-07-12T13:22:42.231Z,5.20
2018-07-12T13:25:10.312Z,6.08
2018-07-12T13:27:38.590Z,5.62
2018-07-12T13:30:06.722Z,5.67
2018-07-12T13:32:34.804Z,4.80
2018-07-12T13:35:02.876Z,5.17
2018-07-12T13:37:30.978Z,6.08
2018-07-12T13:39:59.075Z,4.95
2018-07-12T13:42:27.144Z,5.42
2018-07-12T13:44:55.225Z,5.05
2018-07-12T13:47:23.304Z,4.62
2018-07-12T13:49:51.401Z,4.95
2018-07-12T13:52:19.471Z,4.28
2018-07-12T13:54:47.532Z,3.85
2018-07-12T13:57:15.608Z,4.35
2018-07-12T13:59:43.704Z,4.20
2018-07-12T14:02:12.032Z,4.83
2018-07-12T14:04:40.080Z,4.53
2018-07-12T14:07:08.175Z,4.60
2018-07-12T14:09:36.531Z,4.58
2018-07-12T14:12:04.589Z,4.17
2018-07-12T14:14:32.627Z,4.37
2018-07-12T14:17:00.677Z,4.28
2018-07-12T14:19:28.725Z,4.37
2018-07-12T14:21:56.809Z,4.62
2018-07-12T14:24:24.923Z,3.85
2018-07-12T14:26:52.982Z,3.67
2018-07-12T14:29:21.076Z,3.30
2018-07-12T14:31:49.151Z,3.85
2018-07-12T14:34:17.219Z,3.50
2018-07-12T14:36:45.613Z,3.58
2018-07-12T14:39:13.768Z,3.27
2018-07-12T14:41:42.057Z,3.67
2018-07-12T14:44:10.151Z,3.42
2018-07-12T14:46:38.210Z,3.00
2018-07-12T14:49:06.260Z,3.85
2018-07-12T14:51:34.315Z,3.80
2018-07-12T14:54:02.528Z,3.77
2018-07-12T14:56:30.697Z,4.05
2018-07-12T14:58:58.835Z,4.53
2018-07-12T15:01:27.062Z,4.33
2018-07-12T15:03:55.238Z,4.55
2018-07-12T15:06:23.583Z,4.40
2018-07-12T15:08:52.115Z,5.08
2018-07-12T15:11:20.364Z,5.03
2018-07-12T15:13:48.775Z,5.20
2018-07-12T15:16:16.821Z,4.53
2018-07-12T15:18:44.881Z,3.83
2018-07-12T15:21:12.963Z,4.67
2018-07-12T15:23:41.268Z,4.22
2018-07-12T15:26:09.333Z,4.20
2018-07-12T15:28:37.380Z,4.10
2018-07-12T15:31:05.809Z,4.12
2018-07-12T15:33:33.854Z,3.90
2018-07-12T15:36:01.900Z,3.92
2018-07-12T15:38:30.008Z,3.45
2018-07-12T15:40:58.071Z,4.40
2018-07-12T15:43:26.134Z,3.10
2018-07-12T15:45:54.187Z,3.60
2018-07-12T15:48:22.241Z,3.35
2018-07-12T15:50:50.307Z,3.55
2018-07-12T15:53:19.351Z,3.33
2018-07-12T15:55:47.459Z,3.40
2018-07-12T15:58:15.777Z,3.85
2018-07-12T16:00:43.807Z,3.70
2018-07-12T16:03:11.948Z,3.40
2018-07-12T16:05:40.132Z,3.55
2018-07-12T16:08:08.183Z,3.52
2018-07-12T16:10:36.251Z,3.17
2018-07-12T16:13:05.676Z,3.70
2018-07-12T16:15:33.744Z,3.17
2018-07-12T16:18:02.671Z,3.90
2018-07-12T16:20:30.760Z,3.27
2018-07-12T16:22:58.943Z,3.52
2018-07-12T16:25:27.249Z,3.02
2018-07-12T16:27:55.587Z,2.98
2018-07-12T16:30:23.916Z,3.40
2018-07-12T16:32:52.343Z,4.87
2018-07-12T16:35:20.812Z,3.55
2018-07-12T16:37:49.058Z,4.33
2018-07-12T16:40:17.867Z,4.40
2018-07-12T16:42:45.951Z,3.67
2018-07-12T16:45:14.009Z,4.08
2018-07-12T16:47:42.068Z,3.70
2018-07-12T16:50:10.107Z,3.50
2018-07-12T16:52:38.175Z,3.87
2018-07-12T16:55:06.207Z,3.33
2018-07-12T16:57:34.244Z,2.98
2018-07-12T17:00:02.299Z,3.37
2018-07-12T17:02:30.355Z,2.95
2018-07-12T17:04:58.820Z,3.62
2018-07-12T17:07:26.862Z,3.45
2018-07-12T17:09:55.511Z,3.90
2018-07-12T17:12:24.010Z,4.40
2018-07-12T17:14:52.274Z,4.28
2018-07-12T17:17:21.254Z,3.62
2018-07-12T17:19:49.410Z,3.77
2018-07-12T17:22:17.681Z,3.67
2018-07-12T17:24:45.872Z,3.60
2018-07-12T17:27:13.940Z,3.58
2018-07-12T17:29:42.013Z,3.85
2018-07-12T17:32:10.085Z,4.20
2018-07-12T17:34:38.172Z,3.70
2018-07-12T17:37:06.326Z,3.15
2018-07-12T17:39:40.975Z,3.85
2018-07-12T17:42:09.014Z,3.27
2018-07-12T17:44:37.074Z,3.42
2018-07-12T17:47:05.523Z,2.87
2018-07-12T17:49:33.572Z,3.27
2018-07-12T17:52:01.646Z,3.30
2018-07-12T17:54:29.708Z,4.12
2018-07-12T17:56:57.765Z,3.55
2018-07-12T17:59:25.816Z,4.20
2018-07-12T18:01:53.908Z,3.47
2018-07-12T18:04:21.965Z,3.62
2018-07-12T18:06:50.016Z,3.30
2018-07-12T18:09:18.087Z,3.75
2018-07-12T18:11:46.176Z,3.42
2018-07-12T18:14:14.297Z,3.45
2018-07-12T18:16:42.346Z,3.80
2018-07-12T18:19:10.448Z,3.60
2018-07-12T18:21:38.550Z,3.10
2018-07-12T18:24:06.631Z,4.03
2018-07-12T18:26:34.742Z,3.47
2018-07-12T18:29:02.838Z,3.20
2018-07-12T18:31:30.910Z,3.20
2018-07-12T18:33:58.951Z,3.33
2018-07-12T18:36:27.538Z,3.35
2018-07-12T18:38:55.574Z,2.75
2018-07-12T18:41:23.756Z,2.98
2018-07-12T18:43:51.780Z,2.83
2018-07-12T18:46:19.840Z,2.85
2018-07-12T18:48:48.333Z,3.00
2018-07-12T18:51:16.403Z,3.10
2018-07-12T18:53:44.435Z,3.10
2018-07-12T18:56:13.260Z,3.05
2018-07-12T18:58:41.304Z,3.05
2018-07-12T19:01:09.485Z,3.47
2018-07-12T19:03:38.097Z,3.67
2018-07-12T19:06:06.211Z,3.35
2018-07-12T19:08:34.353Z,3.42
2018-07-12T19:11:02.765Z,3.58
2018-07-12T19:13:30.872Z,3.80
2018-07-12T19:15:58.945Z,3.47
2018-07-12T19:18:27.450Z,3.40
2018-07-12T19:20:55.520Z,4.00
2018-07-12T19:23:23.612Z,3.20
2018-07-12T19:25:51.916Z,3.30
2018-07-12T19:28:19.976Z,3.62
2018-07-12T19:30:48.070Z,3.30
2018-07-12T19:33:16.312Z,3.45
2018-07-12T19:35:44.391Z,3.17
2018-07-12T19:38:12.470Z,3.70
2018-07-12T19:40:40.533Z,3.65
2018-07-12T19:43:08.671Z,3.55
2018-07-12T19:45:36.784Z,3.80
2018-07-12T19:48:05.143Z,3.80
2018-07-12T19:50:33.525Z,3.40
2018-07-12T19:53:01.612Z,4.00
2018-07-12T19:55:30.048Z,3.27
2018-07-12T19:57:58.254Z,3.70
2018-07-12T20:00:26.556Z,3.83
2018-07-12T20:02:55.206Z,3.87
2018-07-12T20:05:23.491Z,3.87
2018-07-12T20:07:52.511Z,4.37
2018-07-12T20:10:21.173Z,4.10
2018-07-12T20:12:49.455Z,3.47
2018-07-12T20:15:17.767Z,4.03
2018-07-12T20:17:46.081Z,4.50
2018-07-12T20:20:14.640Z,4.75
2018-07-12T20:22:42.731Z,4.85
2018-07-12T20:25:10.835Z,4.40
2018-07-12T20:27:38.893Z,4.90
2018-07-12T20:30:07.585Z,4.37
2018-07-12T20:32:35.636Z,4.50
2018-07-12T20:35:03.688Z,4.50
2018-07-12T20:37:32.056Z,4.62
2018-07-12T20:40:00.251Z,4.10
2018-07-12T20:42:28.405Z,4.35
2018-07-12T20:44:56.951Z,5.00
2018-07-12T20:47:25.393Z,4.92
2018-07-12T20:49:53.768Z,5.40
2018-07-12T20:52:22.416Z,4.62
2018-07-12T20:54:50.978Z,6.03
2018-07-12T20:57:19.289Z,5.12
2018-07-12T20:59:47.452Z,8.65
2018-07-12T21:02:15.663Z,5.75
2018-07-12T21:04:43.736Z,5.53
2018-07-12T21:07:11.881Z,14.60
2018-07-12T21:09:41.114Z,8.90
2018-07-12T21:12:09.159Z,5.67
2018-07-12T21:14:37.406Z,5.78
2018-07-12T21:17:05.472Z,5.70
2018-07-12T21:19:33.592Z,6.20
2018-07-12T21:22:02.218Z,6.20
2018-07-12T21:24:30.327Z,6.03
2018-07-12T21:26:58.575Z,5.80
2018-07-12T21:29:26.799Z,5.70
2018-07-12T21:31:55.487Z,7.00
2018-07-12T21:34:23.862Z,6.83
2018-07-12T21:36:52.355Z,6.20
2018-07-12T21:39:20.831Z,6.25
2018-07-12T21:41:49.287Z,6.37
2018-07-12T21:44:17.875Z,5.92
2018-07-12T21:46:46.178Z,6.40
2018-07-12T21:49:14.399Z,6.78
2018-07-12T21:51:42.531Z,7.42
2018-07-12T21:54:10.591Z,6.80
2018-07-12T21:56:38.759Z,6.12
2018-07-12T21:59:06.814Z,6.20
2018-07-12T22:01:34.892Z,7.77
2018-07-12T22:04:03.000Z,6.50
2018-07-12T22:07:41.444Z,7.13
2018-07-12T22:10:09.862Z,6.57
2018-07-12T22:12:37.912Z,7.03
2018-07-12T22:15:05.987Z,6.47
2018-07-12T22:17:34.059Z,7.10
2018-07-12T22:20:02.175Z,7.20
2018-07-12T22:22:30.575Z,6.57
2018-07-12T22:24:58.796Z,6.63
2018-07-12T22:27:27.002Z,7.20
2018-07-12T22:29:55.324Z,6.43
2018-07-12T22:32:23.702Z,5.83
2018-07-12T22:34:52.069Z,7.00
2018-07-12T22:37:20.411Z,5.90
2018-07-12T22:39:48.725Z,6.80
2018-07-12T22:42:17.173Z,6.20
2018-07-12T22:44:45.248Z,6.10
2018-07-12T22:47:13.279Z,6.00
2018-07-12T22:49:41.354Z,6.73
2018-07-12T22:52:09.444Z,6.33
2018-07-12T22:54:37.536Z,7.20
2018-07-12T22:57:05.596Z,6.60
2018-07-12T22:59:33.660Z,6.77
2018-07-12T23:02:01.853Z,6.33
2018-07-12T23:04:30.084Z,7.60
2018-07-12T23:06:58.374Z,7.10
2018-07-12T23:09:26.821Z,6.20
2018-07-12T23:11:55.086Z,5.90
2018-07-12T23:14:23.537Z,5.63
2018-07-12T23:16:51.954Z,6.70
2018-07-12T23:19:21.260Z,6.20
2018-07-12T23:21:49.672Z,6.43
2018-07-12T23:24:17.767Z,5.70
2018-07-12T23:26:46.828Z,6.37
2018-07-12T23:29:14.891Z,8.03
2018-07-12T23:31:42.964Z,7.37
2018-07-12T23:34:11.036Z,7.07
2018-07-12T23:36:39.094Z,6.40
2018-07-12T23:39:07.656Z,6.70
2018-07-12T23:41:35.757Z,7.70
2018-07-12T23:44:03.844Z,7.13
2018-07-12T23:46:32.021Z,6.60
2018-07-12T23:49:00.184Z,8.53
2018-07-12T23:51:28.424Z,7.57
2018-07-12T23:53:56.700Z,7.57
2018-07-12T23:56:25.064Z,7.17
2018-07-12T23:58:53.576Z,7.73
